KBWI

Baltimore / Washington International Thurgood Marshall Airport

Baltimore, Maryland, USA
METAR KBWI 201154Z 22006KT 10SM FEW150 SCT250 M02/M08 A2998 RMK AO2 SLP154 T10221078 10000 21033 51004
Observed Flight Rules
Jan-20 @ 11:54 UTC (an hour ago) Visual Flight Rules
Wind Visibility Clouds
220° at 6 knots 10 miles
  • Few at 15,000' AGL
  • Scattered at 25,000' AGL
Temperatures Readings
Current -2°C / 28°F
Dewpoint -8°C / 18°F
Humidity 64%
Altimeter 29.98" Hg
Pressure 1015.4 hPa
Elevation 59
METAR KBWI 201154Z 22006KT 10SM FEW150 SCT250 M02/M08 A2998 RMK AO2 SLP154 T10221078 10000 21033 51004
Observed Flight Rules
Jan-20 @ 11:54 UTC
(an hour ago)
VFR
Wind Visibility
220° at 6 knots 10 miles
Clouds
  • Few at 15,000' AGL
  • Scattered at 25,000' AGL
Temperature Dewpoint
-2°C / 28°F -8°C / 18°F
Humidity Altimeter Pressure
64% 29.98" Hg 1015.4 hPa